• Join FlightAware (Why Join?)
  • Login
  • US Flag GB Flag 
22:08 EDT


 

Airport Tracker/Info


-or-


 

Live Flight TrackerFlight Track Log ✈ N1250V ✈ 11-Oct-2013 ✈ KLUK - KACK

Flight Track Log - Related Links

Times and Time Zones

All times are in EDT time to prevent confusion due to time zone crossing. See the N1250V flight status page for this flight to view local times or setup timezone preferences in your user account.

Time Position Orientation Groundspeed Altitude Reporting Facility
EDT Latitude Longitude Course Direction KTS MPH feet Rate Location/Type
11:53 39.0833 -84.4167 201° Southwest 130 150 1,100  Level Cincinnati TRACON
11:54 39.0500 -84.4333 201° Southwest 198 228 2,500 2,040 Climbing Cincinnati TRACON
11:55 39.0000 -84.4000 153° Southeast 213 245 4,900 2,400 Climbing Cincinnati TRACON
11:56 38.9500 -84.3500 142° Southeast 231 266 7,300 2,040 Climbing Cincinnati TRACON
11:57 38.9239 -84.2692 113° Southeast 242 278 9,500 1,860 Climbing Indianapolis Center
11:58 38.9075 -84.1897 105° East 233 268 11,600 1,860 Climbing Indianapolis Center
11:59 38.8906 -84.1078 105° East 236 272 13,400 1,860 Climbing Indianapolis Center
12:00 38.8711 -84.0103 104° East 235 270 15,500 1,800 Climbing Indianapolis Center
12:01 38.8531 -83.9269 106° East 242 278 17,200 1,500 Climbing Indianapolis Center
12:02 38.8358 -83.8406 104° East 250 288 18,600 1,320 Climbing Indianapolis Center
12:03 38.8536 -83.7592 74° East 240 276 20,000 1,200 Climbing Indianapolis Center
12:04 38.8708 -83.6714 76° East 251 289 21,200 1,200 Climbing Indianapolis Center
12:06 38.8900 -83.5797 75° East 263 303 22,600 1,440 Climbing Indianapolis Center
12:07 38.9108 -83.4692 76° East 266 306 24,200 1,320 Climbing Indianapolis Center
12:08 38.9292 -83.3758 76° East 269 310 25,400 1,140 Climbing Indianapolis Center
12:09 38.9469 -83.2833 76° East 269 310 26,600 960 Climbing Indianapolis Center
12:10 38.9650 -83.1900 76° East 271 312 27,400 720 Climbing Indianapolis Center
12:11 38.9872 -83.0789 76° East 284 327 28,200 780 Climbing Indianapolis Center
12:12 39.0064 -82.9761 76° East 293 337 29,100 780 Climbing Indianapolis Center
12:13 39.0175 -82.8717 82° East 301 346 29,900 720 Climbing Indianapolis Center
12:14 39.0206 -82.7656 88° East 300 345 30,600 660 Climbing Indianapolis Center
12:15 39.0236 -82.6589 88° East 299 344 31,300 540 Climbing Indianapolis Center
12:16 39.0297 -82.5278 87° East 304 350 31,800 600 Climbing Indianapolis Center
12:17 39.0333 -82.4181 88° East 308 354 32,600 720 Climbing Indianapolis Center
12:18 39.0397 -82.3111 86° East 301 346 33,300 660 Climbing Indianapolis Center
12:19 39.0458 -82.2047 86° East 299 344 34,000 480 Climbing Indianapolis Center
12:20 39.0494 -82.0992 87° East 295 339 34,400 420 Climbing Indianapolis Center
12:21 39.0614 -81.9939 82° East 299 344 34,900 240 Climbing Indianapolis Center
12:22 39.0867 -81.8911 72° East 297 342 35,000  Climbing Indianapolis Center
12:23 39.1189 -81.7617 72° East 309 356 35,000  Level Indianapolis Center
12:24 39.1450 -81.6481 73° East 325 374 35,000  Level Indianapolis Center
12:25 39.1722 -81.5339 73° East 330 380 35,000  Level Indianapolis Center
12:26 39.2000 -81.4181 73° East 335 386 35,000  Level Indianapolis Center
12:27 39.2275 -81.3019 73° East 336 387 35,000  Level Indianapolis Center
12:28 39.2556 -81.1836 73° East 341 392 35,000  Level Indianapolis Center
12:29 39.2828 -81.0664 73° East 341 392 35,000  Level Indianapolis Center
12:30 39.3103 -80.9478 73° East 343 395 35,000  Level Indianapolis Center
12:31 39.3439 -80.8050 73° East 345 397 35,000  Level Indianapolis Center
12:32 39.3700 -80.6850 74° East 344 396 35,000  Level Indianapolis Center
12:33 39.3969 -80.5633 74° East 350 403 35,000  Level Indianapolis Center
12:34 39.4250 -80.4444 73° East 348 400 35,000  Level Indianapolis Center
12:35 39.4525 -80.3233 74° East 350 403 35,000  Level Indianapolis Center
12:37 39.4800 -80.2022 74° East 349 402 35,000  Level Indianapolis Center
12:38 39.5069 -80.0811 74° East 349 402 35,000  Level Indianapolis Center
12:38 39.5289 -79.9944 72° East 350 403 35,000  Level Cleveland Center
12:39 39.5558 -79.8725 74° East 353 406 35,000  Level Cleveland Center
12:40 39.5775 -79.7550 77° East 342 394 35,000  Level Cleveland Center
12:41 39.5975 -79.6306 78° East 351 404 35,000  Level Cleveland Center
12:42 39.6178 -79.5089 78° East 350 403 35,000  Level Cleveland Center
12:43 39.6392 -79.3844 77° East 353 406 35,000  Level Cleveland Center
12:44 39.6639 -79.2386 78° East 349 402 35,000  Level Cleveland Center
12:45 39.6844 -79.1153 78° East 351 404 35,000  Level Cleveland Center
12:46 39.7053 -78.9942 77° East 347 399 35,000  Level Cleveland Center
12:47 39.7242 -78.8683 79° East 353 406 35,000  Level Cleveland Center
12:48 39.7450 -78.7467 77° East 348 400 35,000  Level Cleveland Center
12:49 39.7692 -78.5989 78° East 347 399 35,000  Level Cleveland Center
12:51 39.7867 -78.4903 78° East 344 396 35,000  Level Cleveland Center
12:52 39.8097 -78.3456 78° East 343 395 35,000  Level Cleveland Center
12:53 39.8281 -78.2342 78° East 343 395 35,000  Level Cleveland Center
12:54 39.8461 -78.1128 79° East 342 394 35,000  Level Cleveland Center
12:55 39.8653 -77.9925 78° East 339 390 35,000  Level Cleveland Center
12:56 39.8844 -77.8728 78° East 338 389 35,000  Level Cleveland Center
12:57 39.9069 -77.7275 79° East 339 390 35,000  Level Cleveland Center
12:58 39.9250 -77.6086 79° East 335 386 35,000  Level Cleveland Center
12:59 39.9394 -77.5156 79° East 332 382 35,000  Level New York Center
13:00 39.9583 -77.4008 78° East 332 382 35,000  Level New York Center
13:01 39.9756 -77.2833 79° East 332 382 35,000  Level New York Center
13:02 39.9944 -77.1658 78° East 332 382 35,000  Level New York Center
13:03 40.0078 -77.0722 79° East 332 382 35,000  Level New York Center
13:04 40.0278 -76.9275 80° East 332 382 35,000  Level New York Center
13:05 40.0467 -76.8072 78° East 332 382 35,000  Level New York Center
13:06 40.0628 -76.6919 80° East 332 382 35,000  Level New York Center
13:07 40.0794 -76.5683 80° East 332 382 35,000  Level New York Center
13:08 40.0925 -76.4719 80° East 332 382 35,000  Level New York Center
13:09 40.1139 -76.3269 79° East 332 382 35,000  Level New York Center
13:10 40.1403 -76.2122 73° East 332 382 35,000  Level New York Center
13:11 40.1644 -76.0919 75° East 332 382 35,000  Level New York Center
13:12 40.1875 -75.9958 73° East 332 382 35,000  Level New York Center
13:13 40.2186 -75.8542 74° East 332 382 35,000  Level New York Center
13:14 40.2425 -75.7336 75° East 337 388 35,000  Level New York Center
13:15 40.2703 -75.6186 72° East 337 388 35,000  Level New York Center
13:16 40.2939 -75.4978 76° East 332 382 35,000  Level New York Center
13:17 40.3194 -75.3769 74° East 337 388 35,000  Level New York Center
13:18 40.3450 -75.2561 74° East 337 388 35,000  Level New York Center
13:19 40.3706 -75.1353 74° East 337 388 35,000  Level New York Center
13:20 40.3958 -75.0142 75° East 337 388 35,000  Level New York Center
13:21 40.4208 -74.8903 75° East 337 388 35,000  Level New York Center
13:22 40.4439 -74.7689 76° East 337 388 35,000  Level New York Center
13:23 40.4708 -74.6478 74° East 337 388 35,000  Level New York Center
13:24 40.4936 -74.5261 76° East 337 388 35,000  Level New York Center
13:26 40.5589 -74.2019 75° East 334 384 35,000  Level Boston Center
13:27 40.5817 -74.0797 76° East 339 390 35,000  Level Boston Center
13:28 40.6061 -73.9681 74° East 334 384 35,000  Level Boston Center
13:29 40.6306 -73.8431 76° East 329 379 35,000  Level Boston Center
13:30 40.6550 -73.7203 75° East 342 394 35,000  Level Boston Center
13:31 40.6794 -73.5922 76° East 356 410 35,000 -480 Level Boston Center
13:32 40.6994 -73.4639 78° East 361 415 34,100 -1,140 Descending Boston Center
13:33 40.7256 -73.3300 76° East 361 415 32,800 -1,440 Descending Boston Center
13:34 40.7494 -73.1742 79° East 375 432 31,300 -1,440 Descending Boston Center
13:35 40.7733 -73.0375 77° East 380 437 30,000 -1,680 Descending Boston Center
13:36 40.7989 -72.8925 77° East 390 449 28,000 -2,040 Descending Boston Center
13:37 40.8203 -72.7472 79° East 395 455 25,900 -2,040 Descending Boston Center
13:38 40.8414 -72.6103 78° East 390 449 23,900 -2,040 Descending Boston Center
13:39 40.8644 -72.4758 77° East 390 449 21,800 -1,740 Descending Boston Center
13:40 40.8833 -72.3522 79° East 374 430 20,500 -960 Descending Boston Center
13:41 40.9039 -72.2314 77° East 351 404 20,000 -300 Descending Boston Center
13:42 40.9222 -72.1050 79° East 346 398 20,000  Level Boston Center
13:43 40.9428 -71.9758 78° East 346 398 20,000  Level Boston Center
13:44 40.9692 -71.8519 74° East 351 404 20,000  Level Boston Center
13:45 40.9853 -71.7225 81° East 351 404 20,000  Level Boston Center
13:46 41.0031 -71.5847 80° East 362 417 20,000  Level Boston Center
13:47 41.0269 -71.4661 75° East 351 404 20,000 -1,020 Level Boston Center
13:48 41.0422 -71.3256 82° East 370 426 18,000 -1,800 Descending Boston Center
13:49 41.0578 -71.2178 79° East 351 404 16,400 -1,740 Descending Boston Center
13:50 41.0772 -71.0936 78° East 317 365 14,500 -1,740 Descending Boston Center
13:51 41.0908 -70.9969 79° East 303 349 12,900 -1,740 Descending Boston Center
13:52 41.1078 -70.8808 79° East 294 338 11,000 -1,860 Descending Boston Center
13:53 41.1294 -70.7867 73° East 284 327 9,300 -1,740 Descending Boston Center
13:54 41.1467 -70.6842 77° East 276 318 7,600 -1,740 Descending Boston Center
13:55 41.1347 -70.5853 99° East 270 311 5,800 -1,740 Descending Boston Center
13:56 41.1167 -70.4978 105° East 263 303 4,100 -1,380 Descending Boston Center
13:57 41.1233 -70.4147 84° East 243 280 3,100 -840 Descending Boston Center
13:58 41.1492 -70.3478 63° Northeast 210 242 2,500 -540 Descending Boston Center
13:59 41.1708 -70.2808 67° East 205 236 2,100 -480 Descending Boston Center
14:00 41.1906 -70.2197 67° East 192 221 1,600 -300 Descending Boston Center
14:01 41.2042 -70.1639 72° East 172 198 1,600 -300 Level Boston Center
14:02 41.2178 -70.1139 70° East 151 174 1,100 -420 Descending Boston Center
14:03 41.2314 -70.0747 65° Northeast 138 159 800 4,980 Descending Boston Center
14:04 41.2469 -70.0244 68° East 138 159 11,000 10,500 Climbing Boston Center